Ash Springs, Nevada
Current Conditions -  °F | °C
As of 11:35 AM on Friday 31 Oct 2014 (Local Time) from KSGU Reporting Station
Clear Clear  
Wind Chill: 72°   Ceiling: Unl
Heat Index: 72°   Visibility: 10mi
Dew Point: 30°   Wind: 8mph
Humidity: 22%   Direction: 300°WNW
Pressure: 29.97"   Gusts: NA
Location:  37.6°N, 114.8°W
Report Text: KSGU 311835Z AUTO 30007KT 10SM CLR 22/M01 A2997 RMK AO1
Loading
Personal Weather Stations






























Interactive Weather Map New forecast layout! Learn more

10-Day Weather Forecast

Advertisements
Track Severe Weather on mobile